NEODyS-2

Near Earth Objects - Dynamic Site
NEODyS ∴ Observatories ∴ Site 691 ∴ Obs & residuals
Contact »
691  ▹ 
OBSERVATIONS AND RESIDUALS

691-Steward Observatory, Kitt Peak-Spacewatch

Detections | Residuals | Detections & Residuals

[1-200] [201-400] [401-600] [601-800] [801-1000] [1001-1200] [1201-1400] [1401-1600] [1601-1800] [1801-2000] [2001-2200] [2201-2400] [2401-2600] [2601-2800] [2801-3000] [3001-3200] [3201-3400] [3401-3600] [3601-3800] [3801-4000] [4001-4200] [4201-4400] [4401-4600] [4601-4800] [4801-5000] [5001-5200] [5201-5400] [5401-5600] [5601-5800] [5801-6000] [6001-6200] [6201-6400] [6401-6600] [6601-6800] [6801-7000] [7001-7200] [7201-7400] [7401-7600] [7601-7800] [7801-8000] [8001-8200] [8201-8400] [8401-8600] [8601-8800] [8801-9000] [9001-9200] [9201-9400] [9401-9600] [9601-9800] [9801-10000] [10001-10200] [10201-10400] [10401-10600] [10601-10800] [10801-11000] [11001-11200] [11201-11400] [11401-11600] [11601-11800] [11801-12000] [12001-12200] [12201-12400] [12401-12600] [12601-12800] [12801-13000] [13001-13200] [13201-13400] [13401-13600] [13601-13800] [13801-14000] [14001-14200] [14201-14400] [14401-14600] [14601-14800] [14801-15000] [15001-15200] [15201-15400] [15401-15600] [15601-15800] [15801-16000] [16001-16200] [16201-16400] [16401-16600] [16601-16800] [16801-17000] [17001-17200] [17201-17400] [17401-17600] [17601-17800] [17801-18000] [18001-18200] [18201-18400] [18401-18600] [18601-18800] [18801-19000] [19001-19200] [19201-19400] [19401-19600] [19601-19800] [19801-20000] [20001-20200] [20201-20400] [20401-20600] [20601-20800] [20801-21000] [21001-21200] [21201-21400] [21401-21600] [21601-21800] [21801-22000] [22001-22200] [22201-22400] [22401-22600] [22601-22800] [22801-23000] [23001-23200] [23201-23400] [23401-23600] [23601-23800] [23801-24000] [24001-24200] [24201-24400] [24401-24600] [24601-24800] [24801-25000] [25001-25200] [25201-25400] [25401-25600] [25601-25800] [25801-26000] [26001-26200] [26201-26400] [26401-26600] [26601-26800] [26801-27000] [27001-27200] [27201-27400] [27401-27600] [27601-27800] [27801-28000] [28001-28200] [28201-28400] [28401-28600] [28601-28800] [28801-29000] [29001-29200] [29201-29400] [29401-29600] [29601-29800] [29801-30000] [30001-30200] [30201-30400] [30401-30600] [30601-30800] [30801-31000] [31001-31200] [31201-31400] [31401-31600] [31601-31800] [31801-32000] [32001-32200] [32201-32400] [32401-32600] [32601-32800] [32801-33000] [33001-33200] [33201-33400] [33401-33600] [33601-33800] [33801-34000] [34001-34200] [34201-34400] [34401-34600] [34601-34800] [34801-35000] [35001-35200] [35201-35400] [35401-35600] [35601-35800] [35801-36000] [36001-36200] [36201-36400] [36401-36600] [36601-36800] [36801-37000] [37001-37200] [37201-37400] [37401-37600] [37601-37800] [37801-38000] [38001-38200] [38201-38400] [38401-38600] [38601-38800] [38801-39000] [39001-39200] [39201-39400] [39401-39600] [39601-39800] [39801-40000] [40001-40200] [40201-40400] [40401-40600] [40601-40800] [40801-41000] [41001-41200] [41201-41400] [41401-41600] [41601-41800] [41801-42000] [42001-42200] [42201-42400] [42401-42600] [42601-42800] [42801-43000] [43001-43200] [43201-43400] [43401-43600] [43601-43800] [43801-44000] [44001-44200] [44201-44400] [44401-44600] [44601-44800] [44801-45000] [45001-45200] [45201-45400] [45401-45600] [45601-45800] [45801-46000] [46001-46200] [46201-46400] [46401-46600] [46601-46800] [46801-47000] [47001-47200] [47201-47400] [47401-47600] [47601-47800] [47801-48000] [48001-48200] [48201-48400] [48401-48600] [48601-48800] [48801-49000] [49001-49200] [49201-49400] [49401-49600] [49601-49800] [49801-50000] [50001-50200] [50201-50388]

Designation T Tech N Date Right Ascension Declination Apparent Magnitude Star Catalog Site code χ Used A Used M
yr-mo-day precision hr:min:sec precision rms F bias residual deg min sec precision rms F bias residual mag/col rms residual
2008GU20 O C H 2016-02-29.24887 1.000E-05 09:44:50.450 1.500E-01 0.500 F 0.102 0.221 -10° 07' 45.60" 1.000E-01 0.500 F -0.009 -0.051 20.8 V 0.70 -0.32 o 691 0.46 Yes Yes
2008GU20 O C H 2016-02-29.26680 1.000E-05 09:44:50.840 1.500E-01 0.500 F 0.102 0.936 -10° 07' 44.40" 1.000E-01 0.500 F -0.009 0.579 o 691 2.22 Yes No
2016CJ30 O C H 2016-02-29.31997 1.000E-05 10:21:03.490 1.500E-01 0.500 F 0.230 0.344 +08° 47' 16.60" 1.000E-01 0.500 F 0.154 -0.063 20.1 V 0.70 1.33 o 691 0.71 Yes Yes
2016CJ30 O C H 2016-02-29.32176 1.000E-05 10:21:04.580 1.500E-01 0.500 F 0.230 -0.114 +08° 47' 10.70" 1.000E-01 0.500 F 0.154 0.074 19.7 V 0.70 0.93 o 691 0.28 Yes Yes
2016CJ30 O C H 2016-02-29.32355 1.000E-05 10:21:05.770 1.500E-01 0.500 F 0.230 0.910 +08° 47' 04.20" 1.000E-01 0.500 F 0.154 -0.387 o 691 2.01 Yes No
Cuyo O C 2016-02-29.34103 1.000E-05 12:43:55.910 1.500E-01 0.500 F 0.170 -0.355 -08° 18' 11.70" 1.000E-01 0.500 F 0.177 0.132 o 691 0.76 Yes No
Cuyo O C 2016-02-29.34537 1.000E-05 12:43:55.710 1.500E-01 0.500 F 0.170 -0.451 -08° 18' 09.50" 1.000E-01 0.500 F 0.177 0.062 o 691 0.91 Yes No
Cuyo O C 2016-02-29.34971 1.000E-05 12:43:55.520 1.500E-01 0.500 F 0.170 -0.398 -08° 18' 07.10" 1.000E-01 0.500 F 0.177 0.191 o 691 0.88 Yes No
2015XA379 O C H 2016-02-29.35416 1.000E-05 13:33:57.480 1.500E-01 0.500 F 0.159 0.618 -01° 51' 59.40" 1.000E-01 0.500 F 0.041 -0.333 o 691 1.41 Yes No
2015XA379 O C H 2016-02-29.35757 1.000E-05 13:33:57.930 1.500E-01 0.500 F 0.159 0.247 -01° 51' 58.40" 1.000E-01 0.500 F 0.041 0.155 o 691 0.59 Yes No
2015XA379 O C H 2016-02-29.36098 1.000E-05 13:33:58.430 1.500E-01 0.500 F 0.159 0.667 -01° 51' 58.10" 1.000E-01 0.500 F 0.041 -0.059 o 691 1.34 Yes No
2016CS247 O C H 2016-02-29.37868 1.000E-05 12:14:43.730 1.500E-01 0.500 F 0.294 -0.090 -06° 20' 52.70" 1.000E-01 0.500 F 0.009 0.018 20.3 V 0.70 -0.07 o 691 0.18 Yes Yes
2016CS247 O C H 2016-02-29.38210 1.000E-05 12:14:43.670 1.500E-01 0.500 F 0.294 -0.158 -06° 20' 59.60" 1.000E-01 0.500 F 0.009 -0.019 20.4 V 0.70 0.03 o 691 0.32 Yes Yes
2016CS247 O C H 2016-02-29.38552 1.000E-05 12:14:43.630 1.500E-01 0.500 F 0.294 0.072 -06° 21' 06.30" 1.000E-01 0.500 F 0.009 0.133 20.2 V 0.70 -0.17 o 691 0.31 Yes Yes
2016AZ8 O C H 2016-02-29.38994 1.000E-05 11:24:09.310 1.500E-01 0.500 F 0.110 -0.202 +25° 52' 51.20" 1.000E-01 0.500 F 0.305 0.063 20.3 V 0.70 -0.06 o 691 0.43 Yes Yes
2016AZ8 O C H 2016-02-29.39289 1.000E-05 11:24:08.840 1.500E-01 0.500 F 0.110 -0.103 +25° 52' 52.30" 1.000E-01 0.500 F 0.305 -0.129 20.3 V 0.70 -0.06 o 691 0.33 Yes Yes
2016AZ8 O C H 2016-02-29.39584 1.000E-05 11:24:08.420 1.500E-01 0.500 F 0.110 0.669 +25° 52' 53.40" 1.000E-01 0.500 F 0.305 -0.317 20.3 V 0.70 -0.06 o 691 1.49 Yes Yes
2015TY178 O C H 2016-02-29.42142 1.000E-05 10:40:34.660 1.500E-01 0.500 F 0.054 -0.343 -09° 24' 01.30" 1.000E-01 0.500 F 0.052 -0.219 19.9 V 0.70 0.43 o 691 0.82 Yes Yes
2015TY178 O C H 2016-02-29.42391 1.000E-05 10:40:34.870 1.500E-01 0.500 F 0.054 -0.287 -09° 23' 53.20" 1.000E-01 0.500 F 0.052 0.090 20.0 V 0.70 0.53 o 691 0.60 Yes Yes
2015TY178 O C H 2016-02-29.42640 1.000E-05 10:40:35.100 1.500E-01 0.500 F 0.054 0.061 -09° 23' 45.10" 1.000E-01 0.500 F 0.052 0.399 20.0 V 0.70 0.53 o 691 0.81 Yes Yes
2016CB30 O C H 2016-02-29.44517 1.000E-05 09:30:38.650 1.500E-01 0.500 F 0.036 -0.557 +27° 25' 10.00" 1.000E-01 0.500 F 0.192 -0.299 20.9 V 0.70 0.48 o 691 1.27 Yes Yes
2016CB30 O C H 2016-02-29.44835 1.000E-05 09:30:39.140 1.500E-01 0.500 F 0.036 0.017 +27° 25' 05.40" 1.000E-01 0.500 F 0.192 0.049 21.0 V 0.70 0.58 o 691 0.10 Yes Yes
2016CB30 O C H 2016-02-29.45153 1.000E-05 09:30:39.550 1.500E-01 0.500 F 0.036 -0.498 +27° 25' 00.90" 1.000E-01 0.500 F 0.192 0.502 20.9 V 0.70 0.49 o 691 1.43 Yes Yes
2007BG O C 2016-03-01.11509 1.000E-05 03:52:02.520 1.500E-01 0.500 F -0.078 -0.005 +05° 19' 42.60" 1.000E-01 0.500 F 0.249 0.018 20.4 V 0.70 -0.63 o 691 0.04 Yes Yes
2007BG O C 2016-03-01.11805 1.000E-05 03:52:02.960 1.500E-01 0.500 F -0.078 -0.858 +05° 19' 47.60" 1.000E-01 0.500 F 0.249 0.119 20.1 V 0.70 -0.93 o 691 1.74 Yes Yes
2007BG O C 2016-03-01.12099 1.000E-05 03:52:03.490 1.500E-01 0.500 F -0.078 -0.319 +05° 19' 52.80" 1.000E-01 0.500 F 0.249 0.453 19.8 V 0.70 -1.23 o 691 1.12 Yes Yes
1999XO35 O C 2016-03-01.12477 1.000E-05 03:42:29.810 1.500E-01 0.500 F -0.085 0.050 +25° 44' 26.60" 1.000E-01 0.500 F 0.214 -0.046 20.1 V 0.70 0.12 o 691 0.14 Yes Yes
1998OR2 O C H 2016-03-01.12477 1.000E-05 03:46:49.990 1.500E-01 0.500 F -0.111 -0.546 +25° 23' 21.80" 1.000E-01 0.500 F 0.267 -0.574 20.3 V 0.70 -0.01 o 691 1.59 Yes Yes
1998OR2 O C H 2016-03-01.13027 1.000E-05 03:46:50.390 1.500E-01 0.500 F -0.111 -0.007 +25° 23' 23.00" 1.000E-01 0.500 F 0.267 -0.072 20.2 V 0.70 -0.11 o 691 0.15 Yes Yes
1999XO35 O C 2016-03-01.13027 1.000E-05 03:42:30.760 1.500E-01 0.500 F -0.085 0.177 +25° 44' 32.30" 1.000E-01 0.500 F 0.214 -0.423 20.4 V 0.70 0.42 o 691 0.92 Yes Yes
1998OR2 O C H 2016-03-01.13577 1.000E-05 03:46:50.770 1.500E-01 0.500 F -0.111 0.258 +25° 23' 23.60" 1.000E-01 0.500 F 0.267 -0.169 20.2 V 0.70 -0.11 o 691 0.62 Yes Yes
1999XO35 O C 2016-03-01.13577 1.000E-05 03:42:31.690 1.500E-01 0.500 F -0.085 0.029 +25° 44' 38.60" 1.000E-01 0.500 F 0.214 -0.198 20.0 V 0.70 0.02 o 691 0.40 Yes Yes
2011HJ61 O C H 2016-03-01.13997 1.000E-05 05:28:17.750 1.500E-01 0.500 F -0.046 0.038 -20° 54' 22.90" 1.000E-01 0.500 F -0.189 -0.608 o 691 1.23 Yes No
2011HJ61 O C H 2016-03-01.14246 1.000E-05 05:28:18.380 1.500E-01 0.500 F -0.046 0.533 -20° 54' 19.10" 1.000E-01 0.500 F -0.189 -0.977 o 691 2.27 Yes No
2011HJ61 O C H 2016-03-01.14504 1.000E-05 05:28:18.870 1.500E-01 0.500 F -0.046 -1.237 -20° 54' 14.80" 1.000E-01 0.500 F -0.189 -0.998 o 691 3.14 No No
2015TJ1 O C H 2016-03-01.14912 1.000E-05 05:11:41.410 1.500E-01 0.500 F -0.264 0.520 -07° 34' 50.20" 1.000E-01 0.500 F 0.137 -0.056 o 691 1.07 Yes No
2015TJ1 O C H 2016-03-01.15094 1.000E-05 05:11:42.650 1.500E-01 0.500 F -0.264 1.107 -07° 34' 54.50" 1.000E-01 0.500 F 0.137 -0.881 o 691 2.91 Yes No
2015TJ1 O C H 2016-03-01.15275 1.000E-05 05:11:43.830 1.500E-01 0.500 F -0.264 0.893 -07° 34' 57.80" 1.000E-01 0.500 F 0.137 -0.727 o 691 2.37 Yes No
2016CS246 O C H 2016-03-01.16450 1.000E-05 05:41:13.110 1.500E-01 0.500 F -0.099 0.243 +18° 22' 13.60" 1.000E-01 0.500 F 0.152 -2.490 21.0 V 0.70 0.37 o 691 4.85 No Yes
2016CS246 O C H 2016-03-01.16699 1.000E-05 05:41:13.310 1.500E-01 0.500 F -0.099 0.434 +18° 22' 28.10" 1.000E-01 0.500 F 0.152 1.050 21.2 V 0.70 0.57 o 691 2.36 Yes Yes
2016CS246 O C H 2016-03-01.16947 1.000E-05 05:41:13.510 1.500E-01 0.500 F -0.099 0.634 +18° 22' 39.70" 1.000E-01 0.500 F 0.152 1.735 o 691 3.56 No No
2016CY135 O C H 2016-03-01.17278 1.000E-05 06:21:46.720 1.500E-01 0.500 F -0.049 0.141 +19° 17' 49.10" 1.000E-01 0.500 F 0.098 -0.418 o 691 0.88 Yes No
2016CY135 O C H 2016-03-01.17527 1.000E-05 06:21:45.920 1.500E-01 0.500 F -0.049 -0.174 +19° 17' 49.90" 1.000E-01 0.500 F 0.098 -0.963 o 691 1.96 Yes No
2016CY135 O C H 2016-03-01.17776 1.000E-05 06:21:45.120 1.500E-01 0.500 F -0.049 -0.494 +19° 17' 51.80" 1.000E-01 0.500 F 0.098 -0.402 o 691 1.28 Yes No
1999JV6 O C H 2016-03-01.18407 1.000E-05 07:08:44.120 1.500E-01 0.500 F -0.147 0.291 +29° 28' 52.30" 1.000E-01 0.500 F 0.274 -0.221 20.2 V 0.70 0.14 o 691 0.73 Yes Yes
1999JV6 O C H 2016-03-01.18892 1.000E-05 07:08:44.460 1.500E-01 0.500 F -0.147 -0.038 +29° 28' 52.80" 1.000E-01 0.500 F 0.274 0.055 20.2 V 0.70 0.14 o 691 0.14 Yes Yes
1999JV6 O C H 2016-03-01.19375 1.000E-05 07:08:44.830 1.500E-01 0.500 F -0.147 0.042 +29° 28' 53.00" 1.000E-01 0.500 F 0.274 0.043 20.1 V 0.70 0.04 o 691 0.12 Yes Yes
2016BX39 O C 2016-03-01.19712 1.000E-05 07:30:45.570 1.500E-01 0.500 F -0.010 0.264 +21° 31' 38.70" 1.000E-01 0.500 F 0.246 0.037 20.5 V 0.70 -0.54 o 691 0.54 Yes Yes
2016BX39 O C 2016-03-01.19961 1.000E-05 07:30:45.300 1.500E-01 0.500 F -0.010 -0.999 +21° 31' 34.10" 1.000E-01 0.500 F 0.246 0.488 20.1 V 0.70 -0.94 o 691 2.26 Yes Yes
2016BX39 O C 2016-03-01.20211 1.000E-05 07:30:45.200 1.500E-01 0.500 F -0.010 0.120 +21° 31' 28.80" 1.000E-01 0.500 F 0.246 0.261 20.7 V 0.70 -0.34 o 691 0.59 Yes Yes
2010GE25 O C 2016-03-01.24161 1.000E-05 09:55:05.570 1.500E-01 0.500 F 0.185 0.053 -26° 51' 31.00" 1.000E-01 0.500 F 0.173 0.014 18.6 V 0.70 0.02 o 691 0.11 Yes Yes
2010GE25 O C 2016-03-01.24364 1.000E-05 09:55:05.080 1.500E-01 0.500 F 0.185 0.012 -26° 51' 44.40" 1.000E-01 0.500 F 0.173 0.254 18.7 V 0.70 0.12 o 691 0.52 Yes Yes
2010GE25 O C 2016-03-01.24566 1.000E-05 09:55:04.580 1.500E-01 0.500 F 0.185 -0.194 -26° 51' 58.20" 1.000E-01 0.500 F 0.173 0.025 18.8 V 0.70 0.22 o 691 0.40 Yes Yes
1997XR2 O C H 2016-03-01.27344 1.000E-05 10:16:27.250 1.500E-01 0.500 F 0.022 0.372 -20° 33' 42.40" 1.000E-01 0.500 F 0.037 -0.108 20.6 V 0.70 0.55 o 691 0.78 Yes Yes
1997XR2 O C H 2016-03-01.27592 1.000E-05 10:16:26.780 1.500E-01 0.500 F 0.022 -0.317 -20° 33' 40.30" 1.000E-01 0.500 F 0.037 0.250 20.5 V 0.70 0.45 o 691 0.81 Yes Yes
1997XR2 O C H 2016-03-01.27841 1.000E-05 10:16:26.350 1.500E-01 0.500 F 0.022 -0.419 -20° 33' 38.90" 1.000E-01 0.500 F 0.037 -0.101 20.7 V 0.70 0.65 o 691 0.86 Yes Yes
2015FJ36 O C 2016-03-01.28209 1.000E-05 10:10:13.480 1.500E-01 0.500 F -0.017 -0.246 -11° 55' 31.50" 1.000E-01 0.500 F 0.056 0.243 19.7 V 0.70 -0.10 o 691 0.70 Yes Yes
2015FJ36 O C 2016-03-01.28458 1.000E-05 10:10:12.960 1.500E-01 0.500 F -0.017 -0.008 -11° 55' 27.10" 1.000E-01 0.500 F 0.056 -0.093 19.6 V 0.70 -0.20 o 691 0.19 Yes Yes
2015FJ36 O C 2016-03-01.28706 1.000E-05 10:10:12.400 1.500E-01 0.500 F -0.017 -0.390 -11° 55' 22.20" 1.000E-01 0.500 F 0.056 0.089 19.7 V 0.70 -0.10 o 691 0.81 Yes Yes
2015NS13 O C H 2016-03-01.29064 1.000E-05 11:32:29.480 1.500E-01 0.500 F 0.236 1.227 -28° 19' 37.50" 1.000E-01 0.500 F 0.271 -0.074 21.1 V 0.70 0.34 o 691 2.48 Yes Yes
2015NS13 O C H 2016-03-01.29313 1.000E-05 11:32:29.000 1.500E-01 0.500 F 0.236 0.318 -28° 19' 37.40" 1.000E-01 0.500 F 0.271 0.042 21.0 V 0.70 0.24 o 691 0.65 Yes Yes
2015NS13 O C H 2016-03-01.29562 1.000E-05 11:32:28.610 1.500E-01 0.500 F 0.236 0.599 -28° 19' 37.40" 1.000E-01 0.500 F 0.271 0.056 20.9 V 0.70 0.14 o 691 1.21 Yes Yes
2014EK24 O C H 2016-03-01.30002 1.000E-05 08:51:56.820 1.500E-01 0.500 F 0.089 -0.348 +20° 20' 19.70" 1.000E-01 0.500 F 0.221 -0.872 18.4 V 0.70 0.30 o 691 1.88 Yes Yes
2014EK24 O C H 2016-03-01.30211 1.000E-05 08:51:56.410 1.500E-01 0.500 F 0.089 -0.356 +20° 20' 06.50" 1.000E-01 0.500 F 0.221 -1.131 o 691 2.38 Yes No
2014EK24 O C H 2016-03-01.30413 1.000E-05 08:51:56.010 1.500E-01 0.500 F 0.089 -0.428 +20° 19' 54.40" 1.000E-01 0.500 F 0.221 -0.717 18.3 V 0.70 0.20 o 691 1.67 Yes Yes
2003GA O C 2016-03-01.30724 1.000E-05 09:38:54.050 1.500E-01 0.500 F 0.048 0.703 +04° 07' 08.00" 1.000E-01 0.500 F 0.192 0.462 19.7 V 0.70 -0.30 o 691 1.69 Yes Yes
2003GA O C 2016-03-01.30973 1.000E-05 09:38:53.680 1.500E-01 0.500 F 0.048 -0.305 +04° 07' 10.40" 1.000E-01 0.500 F 0.192 0.239 19.9 V 0.70 -0.10 o 691 0.78 Yes Yes
2003GA O C 2016-03-01.31222 1.000E-05 09:38:53.390 1.500E-01 0.500 F 0.048 -0.117 +04° 07' 12.70" 1.000E-01 0.500 F 0.192 -0.083 19.8 V 0.70 -0.20 o 691 0.29 Yes Yes
2015PD O C H 2016-03-01.32519 1.000E-05 11:42:14.590 1.500E-01 0.500 F 0.392 -0.486 -26° 02' 01.40" 1.000E-01 0.500 F 0.174 0.107 21.2 V 0.70 0.32 o 691 1.01 Yes Yes
2015PD O C H 2016-03-01.32768 1.000E-05 11:42:14.340 1.500E-01 0.500 F 0.392 0.574 -26° 01' 59.30" 1.000E-01 0.500 F 0.174 -0.264 o 691 1.29 Yes No
2015PD O C H 2016-03-01.33017 1.000E-05 11:42:13.990 1.500E-01 0.500 F 0.392 0.287 -26° 01' 57.50" 1.000E-01 0.500 F 0.174 -0.936 o 691 1.99 Yes No
2016DV21 O C H 2016-03-01.34610 1.000E-05 11:14:42.490 1.500E-01 0.500 F 0.231 -0.300 +08° 39' 22.10" 1.000E-01 0.500 F 0.088 0.173 20.8 V 0.70 0.23 o 691 0.70 Yes Yes
2016DV21 O C H 2016-03-01.34859 1.000E-05 11:14:42.620 1.500E-01 0.500 F 0.231 0.416 +08° 39' 29.20" 1.000E-01 0.500 F 0.088 0.008 20.9 V 0.70 0.33 o 691 0.84 Yes Yes
2016DV21 O C H 2016-03-01.35107 1.000E-05 11:14:42.700 1.500E-01 0.500 F 0.231 0.395 +08° 39' 37.60" 1.000E-01 0.500 F 0.088 1.173 20.9 V 0.70 0.33 o 691 2.49 Yes Yes
2016CQ195 O C H 2016-03-01.35420 1.000E-05 10:46:32.590 1.500E-01 0.500 F 0.104 -0.443 -01° 52' 43.70" 1.000E-01 0.500 F 0.122 -0.195 o 691 0.97 Yes No
2016CQ195 O C H 2016-03-01.35669 1.000E-05 10:46:32.330 1.500E-01 0.500 F 0.104 0.500 -01° 52' 43.90" 1.000E-01 0.500 F 0.122 -0.155 o 691 1.05 Yes No
2016CQ195 O C H 2016-03-01.35920 1.000E-05 10:46:31.990 1.500E-01 0.500 F 0.104 0.282 -01° 52' 44.00" 1.000E-01 0.500 F 0.122 -0.014 o 691 0.57 Yes No
2015TY178 O C 2016-03-01.38156 1.000E-05 10:42:04.620 1.500E-01 0.500 F 0.054 0.135 -08° 35' 07.10" 1.000E-01 0.500 F 0.052 0.389 19.6 V 0.70 0.10 o 691 0.83 Yes Yes
2015TY178 O C 2016-03-01.38404 1.000E-05 10:42:04.800 1.500E-01 0.500 F 0.054 -0.018 -08° 35' 00.00" 1.000E-01 0.500 F 0.052 -0.007 19.7 V 0.70 0.20 o 691 0.04 Yes Yes
2015TY178 O C 2016-03-01.38653 1.000E-05 10:42:04.980 1.500E-01 0.500 F 0.054 -0.187 -08° 34' 52.70" 1.000E-01 0.500 F 0.052 -0.234 19.7 V 0.70 0.20 o 691 0.60 Yes Yes
2007GG O C 2016-03-01.43598 1.000E-05 12:28:01.340 1.500E-01 0.500 F 0.172 -0.082 +03° 31' 53.10" 1.000E-01 0.500 F 0.317 0.180 19.9 V 0.70 -0.10 o 691 0.40 Yes Yes
2007GG O C 2016-03-01.43985 1.000E-05 12:28:01.080 1.500E-01 0.500 F 0.172 -0.085 +03° 31' 55.80" 1.000E-01 0.500 F 0.317 0.368 19.8 V 0.70 -0.20 o 691 0.76 Yes Yes
2007GG O C 2016-03-01.44373 1.000E-05 12:28:00.800 1.500E-01 0.500 F 0.172 -0.379 +03° 31' 58.10" 1.000E-01 0.500 F 0.317 0.148 20.0 V 0.70 0.00 o 691 0.83 Yes Yes
2005EW169 O C H 2016-03-01.44778 1.000E-05 12:46:23.350 1.500E-01 0.500 F 0.177 0.173 -07° 57' 39.00" 1.000E-01 0.500 F 0.039 -0.074 21.0 V 0.70 0.22 o 691 0.38 Yes Yes
2005EW169 O C H 2016-03-01.45074 1.000E-05 12:46:23.130 1.500E-01 0.500 F 0.177 0.536 -07° 57' 37.90" 1.000E-01 0.500 F 0.039 -0.627 21.0 V 0.70 0.22 o 691 1.65 Yes Yes
2005EW169 O C H 2016-03-01.45369 1.000E-05 12:46:22.890 1.500E-01 0.500 F 0.177 0.589 -07° 57' 35.80" 1.000E-01 0.500 F 0.039 -0.175 21.1 V 0.70 0.32 o 691 1.23 Yes Yes
2016AZ8 O C 2016-03-01.45768 1.000E-05 11:21:27.440 1.500E-01 0.500 F 0.110 -0.558 +26° 00' 24.50" 1.000E-01 0.500 F 0.305 0.212 20.0 V 0.70 -0.40 o 691 1.20 Yes Yes
2016AZ8 O C 2016-03-01.46017 1.000E-05 11:21:27.050 1.500E-01 0.500 F 0.110 -0.556 +26° 00' 25.10" 1.000E-01 0.500 F 0.305 -0.083 20.0 V 0.70 -0.40 o 691 1.13 Yes Yes
2016AZ8 O C 2016-03-01.46265 1.000E-05 11:21:26.690 1.500E-01 0.500 F 0.110 -0.175 +26° 00' 26.20" 1.000E-01 0.500 F 0.305 0.128 19.9 V 0.70 -0.50 o 691 0.44 Yes Yes
2016DW21 O C H 2016-03-01.46672 1.000E-05 11:20:45.350 1.500E-01 0.500 F 0.004 0.391 +30° 55' 29.20" 1.000E-01 0.500 F 0.119 -0.440 o 691 1.19 Yes No
2016DW21 O C H 2016-03-01.46990 1.000E-05 11:20:45.420 1.500E-01 0.500 F 0.004 0.173 +30° 55' 38.60" 1.000E-01 0.500 F 0.119 -0.372 o 691 0.83 Yes No
2016DW21 O C H 2016-03-01.47308 1.000E-05 11:20:45.510 1.500E-01 0.500 F 0.004 0.207 +30° 55' 47.50" 1.000E-01 0.500 F 0.119 -0.802 o 691 1.68 Yes No
2015XA379 O C 2016-03-01.49793 1.000E-05 13:37:29.800 1.500E-01 0.500 F 0.159 -0.132 -01° 48' 39.30" 1.000E-01 0.500 F 0.041 0.005 19.6 V 0.70 -0.70 o 691 0.27 Yes Yes
2015XA379 O C 2016-03-01.50042 1.000E-05 13:37:30.100 1.500E-01 0.500 F 0.159 -0.020 -01° 48' 38.80" 1.000E-01 0.500 F 0.041 0.016 19.8 V 0.70 -0.50 o 691 0.05 Yes Yes
2015XA379 O C 2016-03-01.50291 1.000E-05 13:37:30.390 1.500E-01 0.500 F 0.159 -0.074 -01° 48' 38.40" 1.000E-01 0.500 F 0.041 -0.074 19.7 V 0.70 -0.60 o 691 0.21 Yes Yes
2008TZ3 O C 2016-03-01.51677 1.000E-05 13:46:42.640 1.500E-01 0.500 F 0.268 -0.202 +11° 28' 38.80" 1.000E-01 0.500 F 0.203 -0.211 20.4 V 0.70 -0.34 o 691 0.58 Yes Yes
2008TZ3 O C 2016-03-01.52019 1.000E-05 13:46:42.900 1.500E-01 0.500 F 0.268 -0.096 +11° 28' 39.60" 1.000E-01 0.500 F 0.203 -0.024 20.4 V 0.70 -0.34 o 691 0.20 Yes Yes
2008TZ3 O C 2016-03-01.52361 1.000E-05 13:46:43.160 1.500E-01 0.500 F 0.268 0.005 +11° 28' 40.20" 1.000E-01 0.500 F 0.203 -0.036 20.2 V 0.70 -0.54 o 691 0.07 Yes Yes
2016EC1 O C H 2016-03-01.52829 1.000E-05 13:15:54.740 1.500E-01 0.500 F 0.084 -0.099 +05° 02' 10.60" 1.000E-01 0.500 F 0.223 0.019 19.6 V 0.70 0.22 o 691 0.21 Yes Yes
2016EC1 O C H 2016-03-01.53141 1.000E-05 13:15:54.900 1.500E-01 0.500 F 0.084 -0.156 +05° 01' 23.90" 1.000E-01 0.500 F 0.223 -0.694 19.4 V 0.70 0.02 o 691 1.46 Yes Yes
2000BD19 O C H 2016-03-02.10713 1.000E-05 00:46:51.290 1.500E-01 0.500 F -0.184 0.116 +22° 05' 27.20" 1.000E-01 0.500 F 0.281 0.061 19.9 V 0.70 0.84 o 691 0.26 Yes Yes
2000BD19 O C H 2016-03-02.10916 1.000E-05 00:46:52.120 1.500E-01 0.500 F -0.184 -0.196 +22° 05' 33.80" 1.000E-01 0.500 F 0.281 -0.170 20.0 V 0.70 0.94 o 691 0.52 Yes Yes
1998OR2 O C H 2016-03-02.11350 1.000E-05 03:47:56.910 1.500E-01 0.500 F -0.152 -0.629 +25° 25' 34.90" 1.000E-01 0.500 F 0.236 -0.833 20.2 V 0.70 -0.11 o 691 2.09 Yes Yes
1998OR2 O C H 2016-03-02.11882 1.000E-05 03:47:57.310 1.500E-01 0.500 F -0.152 -0.040 +25° 25' 36.10" 1.000E-01 0.500 F 0.236 -0.330 20.6 V 0.70 0.29 o 691 0.67 Yes Yes
1998OR2 O C H 2016-03-02.12413 1.000E-05 03:47:57.690 1.500E-01 0.500 F -0.152 0.283 +25° 25' 37.20" 1.000E-01 0.500 F 0.236 0.075 20.4 V 0.70 0.09 o 691 0.59 Yes Yes
2007BG O C 2016-03-02.12758 1.000E-05 03:54:56.400 1.500E-01 0.500 F -0.095 -0.503 +05° 47' 32.60" 1.000E-01 0.500 F 0.223 0.406 20.7 V 0.70 -0.34 o 691 1.30 Yes Yes
2007BG O C 2016-03-02.13007 1.000E-05 03:54:56.760 1.500E-01 0.500 F -0.095 -1.354 +05° 47' 36.40" 1.000E-01 0.500 F 0.223 0.135 20.7 V 0.70 -0.34 o 691 2.73 Yes Yes
2007BG O C 2016-03-02.13256 1.000E-05 03:54:57.210 1.500E-01 0.500 F -0.095 -0.863 +05° 47' 39.90" 1.000E-01 0.500 F 0.223 -0.435 20.7 V 0.70 -0.34 o 691 1.94 Yes Yes
2015UF O C H 2016-03-02.14885 1.000E-05 05:04:23.870 1.500E-01 0.500 F -0.139 0.353 +12° 01' 37.80" 1.000E-01 0.500 F 0.235 0.335 o 691 1.12 Yes No
2015UF O C H 2016-03-02.15134 1.000E-05 05:04:24.570 1.500E-01 0.500 F -0.139 -0.201 +12° 01' 38.80" 1.000E-01 0.500 F 0.235 -0.859 o 691 1.89 Yes No
2015UF O C H 2016-03-02.15384 1.000E-05 05:04:25.330 1.500E-01 0.500 F -0.139 0.081 +12° 01' 41.30" 1.000E-01 0.500 F 0.235 -0.562 o 691 1.20 Yes No
2016CT30 O C H 2016-03-02.15695 1.000E-05 05:06:32.580 1.500E-01 0.500 F -0.198 -0.112 +20° 40' 01.10" 1.000E-01 0.500 F 0.259 0.494 o 691 1.04 Yes No
2016CT30 O C H 2016-03-02.15944 1.000E-05 05:06:33.060 1.500E-01 0.500 F -0.198 0.745 +20° 39' 54.60" 1.000E-01 0.500 F 0.259 -0.562 o 691 1.91 Yes No
2016CT30 O C H 2016-03-02.16192 1.000E-05 05:06:33.450 1.500E-01 0.500 F -0.198 0.362 +20° 39' 49.60" 1.000E-01 0.500 F 0.259 -0.140 o 691 0.79 Yes No
2016CS246 O C H 2016-03-02.16502 1.000E-05 05:42:37.140 1.500E-01 0.500 F -0.055 0.158 +19° 35' 41.90" 1.000E-01 0.500 F 0.200 1.087 o 691 2.29 Yes No
2016CS246 O C H 2016-03-02.16750 1.000E-05 05:42:37.360 1.500E-01 0.500 F -0.055 0.476 +19° 35' 51.60" 1.000E-01 0.500 F 0.200 -0.067 o 691 0.99 Yes No
2016CS246 O C H 2016-03-02.16999 1.000E-05 05:42:37.560 1.500E-01 0.500 F -0.055 0.499 +19° 36' 01.50" 1.000E-01 0.500 F 0.200 -1.063 o 691 2.42 Yes No
2016DO2 O C H 2016-03-02.18044 1.000E-05 08:54:09.130 1.500E-01 0.500 F 0.013 0.406 +13° 57' 59.20" 1.000E-01 0.500 F 0.148 -0.715 o 691 1.68 Yes No
2016DO2 O C H 2016-03-02.18270 1.000E-05 08:54:10.090 1.500E-01 0.500 F 0.013 1.243 +13° 57' 58.90" 1.000E-01 0.500 F 0.148 -0.434 o 691 2.73 Yes No
1997XR2 O C H 2016-03-02.18648 1.000E-05 10:14:02.440 1.500E-01 0.500 F 0.050 0.720 -20° 22' 29.10" 1.000E-01 0.500 F -0.006 -0.946 o 691 2.39 Yes No
1997XR2 O C H 2016-03-02.18897 1.000E-05 10:14:01.990 1.500E-01 0.500 F 0.050 0.246 -20° 22' 26.70" 1.000E-01 0.500 F -0.006 -0.374 o 691 0.90 Yes No
1997XR2 O C H 2016-03-02.19145 1.000E-05 10:14:01.560 1.500E-01 0.500 F 0.050 0.032 -20° 22' 24.80" 1.000E-01 0.500 F -0.006 -0.296 o 691 0.60 Yes No
2015FJ36 O C 2016-03-02.20670 1.000E-05 10:07:16.210 1.500E-01 0.500 F 0.035 0.048 -11° 26' 23.80" 1.000E-01 0.500 F 0.100 -0.001 19.9 V 0.70 0.04 o 691 0.10 Yes Yes
2015FJ36 O C 2016-03-02.20963 1.000E-05 10:07:15.580 1.500E-01 0.500 F 0.035 -0.469 -11° 26' 18.50" 1.000E-01 0.500 F 0.100 -0.121 19.8 V 0.70 -0.06 o 691 0.98 Yes Yes
2015FJ36 O C 2016-03-02.21256 1.000E-05 10:07:15.000 1.500E-01 0.500 F 0.035 -0.246 -11° 26' 13.00" 1.000E-01 0.500 F 0.100 -0.043 19.9 V 0.70 0.04 o 691 0.51 Yes Yes
2010GE25 O C H 2016-03-02.21994 1.000E-05 09:51:23.540 1.500E-01 0.500 F 0.246 -0.022 -28° 40' 05.10" 1.000E-01 0.500 F -0.046 0.175 19.0 V 0.70 0.38 o 691 0.36 Yes Yes
2010GE25 O C H 2016-03-02.22196 1.000E-05 09:51:23.020 1.500E-01 0.500 F 0.246 -0.340 -28° 40' 18.90" 1.000E-01 0.500 F -0.046 -0.186 19.0 V 0.70 0.38 o 691 0.79 Yes Yes
2010GE25 O C H 2016-03-02.22398 1.000E-05 09:51:22.540 1.500E-01 0.500 F 0.246 -0.130 -28° 40' 32.20" 1.000E-01 0.500 F -0.046 -0.051 18.9 V 0.70 0.28 o 691 0.28 Yes Yes
2016CN247 O C H 2016-03-02.22662 1.000E-05 09:39:49.110 1.500E-01 0.500 F 0.168 -0.478 -27° 08' 54.00" 1.000E-01 0.500 F 0.177 0.002 20.7 V 0.70 -0.53 o 691 1.01 Yes Yes
2014EK24 O C 2016-03-02.23171 1.000E-05 08:50:05.490 1.500E-01 0.500 F 0.061 -0.197 +18° 48' 41.00" 1.000E-01 0.500 F 0.179 -0.325 17.9 V 0.70 -0.29 o 691 0.76 Yes Yes
2014EK24 O C 2016-03-02.23373 1.000E-05 08:50:05.110 1.500E-01 0.500 F 0.061 -0.272 +18° 48' 29.40" 1.000E-01 0.500 F 0.179 -0.292 17.8 V 0.70 -0.39 o 691 0.80 Yes Yes
2014EK24 O C 2016-03-02.23575 1.000E-05 08:50:04.730 1.500E-01 0.500 F 0.061 -0.350 +18° 48' 17.70" 1.000E-01 0.500 F 0.179 -0.352 17.9 V 0.70 -0.29 o 691 1.00 Yes Yes
2016CV246 O C 2016-03-02.23846 1.000E-05 09:27:15.320 1.500E-01 0.500 F -0.028 -0.898 +10° 07' 38.70" 1.000E-01 0.500 F 0.234 -1.383 21.5 V 0.70 0.54 o 691 3.27 No Yes
2016CV246 O C 2016-03-02.24072 1.000E-05 09:27:14.920 1.500E-01 0.500 F -0.028 -1.248 +10° 07' 29.20" 1.000E-01 0.500 F 0.234 -0.918 21.2 V 0.70 0.24 o 691 3.13 Yes Yes
2016CV246 O C 2016-03-02.24298 1.000E-05 09:27:14.640 1.500E-01 0.500 F -0.028 0.174 +10° 07' 20.40" 1.000E-01 0.500 F 0.234 0.248 21.1 V 0.70 0.14 o 691 0.61 Yes Yes
2016CN247 O C H 2016-03-02.24683 1.000E-05 09:39:49.210 1.500E-01 0.500 F 0.168 -0.546 -27° 09' 00.20" 1.000E-01 0.500 F 0.177 0.474 21.1 V 0.70 -0.13 o 691 1.53 Yes Yes
2015PD O C H 2016-03-02.26330 1.000E-05 11:40:15.510 1.500E-01 0.500 F 0.393 -0.212 -25° 46' 11.20" 1.000E-01 0.500 F 0.174 0.202 20.5 V 0.70 -0.38 o 691 0.60 Yes Yes
2015PD O C H 2016-03-02.26579 1.000E-05 11:40:15.200 1.500E-01 0.500 F 0.393 -0.003 -25° 46' 09.20" 1.000E-01 0.500 F 0.174 -0.321 20.7 V 0.70 -0.18 o 691 0.65 Yes Yes
2015PD O C H 2016-03-02.26828 1.000E-05 11:40:14.910 1.500E-01 0.500 F 0.393 0.476 -25° 46' 06.90" 1.000E-01 0.500 F 0.174 -0.546 o 691 1.47 Yes No
2016CN247 O C H 2016-03-02.27222 1.000E-05 09:39:49.410 1.500E-01 0.500 F 0.168 0.417 -27° 09' 09.00" 1.000E-01 0.500 F 0.177 -0.259 o 691 1.04 Yes No
2003GA O C 2016-03-02.27698 1.000E-05 09:37:06.490 1.500E-01 0.500 F 0.103 -0.105 +04° 24' 19.30" 1.000E-01 0.500 F 0.180 -0.078 20.0 V 0.70 -0.02 o 691 0.26 Yes Yes
2003GA O C 2016-03-02.28101 1.000E-05 09:37:06.000 1.500E-01 0.500 F 0.103 -0.149 +04° 24' 23.70" 1.000E-01 0.500 F 0.180 0.007 20.0 V 0.70 -0.02 o 691 0.30 Yes Yes
2003GA O C 2016-03-02.28505 1.000E-05 09:37:05.520 1.500E-01 0.500 F 0.103 -0.027 +04° 24' 28.10" 1.000E-01 0.500 F 0.180 0.083 20.0 V 0.70 -0.02 o 691 0.18 Yes Yes
2016CP247 O C H 2016-03-02.28809 1.000E-05 10:23:27.180 1.500E-01 0.500 F 0.116 0.080 -04° 06' 55.70" 1.000E-01 0.500 F 0.139 0.846 21.1 V 0.70 0.29 o 691 1.71 Yes Yes
2016CP247 O C H 2016-03-02.29084 1.000E-05 10:23:27.630 1.500E-01 0.500 F 0.116 -0.102 -04° 06' 52.70" 1.000E-01 0.500 F 0.139 0.442 21.1 V 0.70 0.29 o 691 0.91 Yes Yes
2016CP247 O C H 2016-03-02.29355 1.000E-05 10:23:28.010 1.500E-01 0.500 F 0.116 -1.229 -04° 06' 50.00" 1.000E-01 0.500 F 0.139 -0.214 21.0 V 0.70 0.19 o 691 2.51 Yes Yes
2016DF1 O C H 2016-03-02.29731 1.000E-05 09:25:46.860 1.500E-01 0.500 F 0.072 0.382 +21° 32' 43.70" 1.000E-01 0.500 F 0.320 -0.707 o 691 1.62 Yes No
2016DF1 O C H 2016-03-02.30026 1.000E-05 09:25:47.340 1.500E-01 0.500 F 0.072 1.492 +21° 32' 36.70" 1.000E-01 0.500 F 0.320 -1.319 o 691 3.94 No No
2016DF1 O C H 2016-03-02.30321 1.000E-05 09:25:47.610 1.500E-01 0.500 F 0.072 -0.329 +21° 32' 31.20" 1.000E-01 0.500 F 0.320 -0.426 o 691 1.09 Yes No
2015NS13 O C 2016-03-02.30884 1.000E-05 11:29:47.590 1.500E-01 0.500 F 0.190 -0.409 -28° 19' 00.60" 1.000E-01 0.500 F 0.215 0.046 21.0 V 0.70 0.24 o 691 0.83 Yes Yes
2015NS13 O C 2016-03-02.31133 1.000E-05 11:29:47.130 1.500E-01 0.500 F 0.190 -1.069 -28° 19' 00.40" 1.000E-01 0.500 F 0.215 0.105 21.1 V 0.70 0.34 o 691 2.17 Yes Yes
2015NS13 O C 2016-03-02.31381 1.000E-05 11:29:46.800 1.500E-01 0.500 F 0.190 -0.033 -28° 19' 00.40" 1.000E-01 0.500 F 0.215 -0.037 21.1 V 0.70 0.34 o 691 0.10 Yes Yes
2016CE30 O C H 2016-03-02.31850 1.000E-05 09:39:02.280 1.500E-01 0.500 F 0.106 -0.283 +16° 06' 22.20" 1.000E-01 0.500 F 0.351 0.186 21.4 V 0.70 -0.11 o 691 0.68 Yes Yes
2004YC5 O C 2016-03-02.31850 1.000E-05 09:40:01.520 1.500E-01 0.500 F 0.057 -0.126 +15° 39' 24.40" 1.000E-01 0.500 F 0.363 0.198 20.8 V 0.70 -0.75 o 691 0.47 Yes Yes
2016CE30 O C H 2016-03-02.32214 1.000E-05 09:39:01.910 1.500E-01 0.500 F 0.106 0.076 +16° 06' 19.60" 1.000E-01 0.500 F 0.351 -0.216 21.6 V 0.70 0.09 o 691 0.46 Yes Yes
2004YC5 O C 2016-03-02.32214 1.000E-05 09:40:01.230 1.500E-01 0.500 F 0.057 -0.093 +15° 39' 24.80" 1.000E-01 0.500 F 0.363 0.038 20.9 V 0.70 -0.65 o 691 0.20 Yes Yes
2016CE30 O C H 2016-03-02.32579 1.000E-05 09:39:01.470 1.500E-01 0.500 F 0.106 -0.562 +16° 06' 17.30" 1.000E-01 0.500 F 0.351 -0.309 21.6 V 0.70 0.09 o 691 1.29 Yes Yes
2004YC5 O C 2016-03-02.32579 1.000E-05 09:40:00.920 1.500E-01 0.500 F 0.057 -0.339 +15° 39' 25.30" 1.000E-01 0.500 F 0.363 -0.022 20.9 V 0.70 -0.65 o 691 0.68 Yes Yes
2015TY178 O C H 2016-03-02.32983 1.000E-05 10:43:29.710 1.500E-01 0.500 F 0.111 0.197 -07° 48' 20.20" 1.000E-01 0.500 F 0.131 0.251 19.9 V 0.70 0.38 o 691 0.64 Yes Yes
2015TY178 O C H 2016-03-02.33232 1.000E-05 10:43:29.860 1.500E-01 0.500 F 0.111 -0.229 -07° 48' 13.00" 1.000E-01 0.500 F 0.131 0.188 19.8 V 0.70 0.28 o 691 0.59 Yes Yes
2015TY178 O C H 2016-03-02.33481 1.000E-05 10:43:30.050 1.500E-01 0.500 F 0.111 -0.060 -07° 48' 06.00" 1.000E-01 0.500 F 0.131 -0.076 19.9 V 0.70 0.38 o 691 0.19 Yes Yes
2016EQ1 O C 2016-03-02.33834 1.000E-05 10:21:49.950 1.500E-01 0.500 F 0.230 -0.579 +08° 54' 31.80" 1.000E-01 0.500 F 0.154 -0.219 20.8 V 0.70 -0.70 o 691 1.25 Yes Yes
2016EQ1 O C 2016-03-02.34083 1.000E-05 10:21:50.180 1.500E-01 0.500 F 0.230 -0.196 +08° 54' 28.60" 1.000E-01 0.500 F 0.154 -0.204 20.7 V 0.70 -0.80 o 691 0.57 Yes Yes
2016EQ1 O C 2016-03-02.34332 1.000E-05 10:21:50.400 1.500E-01 0.500 F 0.230 0.031 +08° 54' 25.60" 1.000E-01 0.500 F 0.154 0.015 20.7 V 0.70 -0.80 o 691 0.07 Yes Yes
2016CY31 O C H 2016-03-02.34611 1.000E-05 10:30:56.200 1.500E-01 0.500 F 0.318 -0.240 +06° 37' 16.50" 1.000E-01 0.500 F 0.113 0.119 20.6 V 0.70 0.19 o 691 0.54 Yes Yes
2016CY31 O C H 2016-03-02.34860 1.000E-05 10:30:56.760 1.500E-01 0.500 F 0.318 -0.453 +06° 37' 19.50" 1.000E-01 0.500 F 0.113 -0.020 20.7 V 0.70 0.29 o 691 0.92 Yes Yes
2016CY31 O C H 2016-03-02.35109 1.000E-05 10:30:57.370 1.500E-01 0.500 F 0.318 0.074 +06° 37' 22.90" 1.000E-01 0.500 F 0.113 0.241 20.4 V 0.70 0.00 o 691 0.51 Yes Yes
2016CB32 O C H 2016-03-02.35380 1.000E-05 10:45:30.690 1.500E-01 0.500 F 0.248 0.367 +06° 26' 52.40" 1.000E-01 0.500 F 0.270 -0.456 21.1 V 0.70 0.00 o 691 1.17 Yes Yes
2016CB32 O C H 2016-03-02.35798 1.000E-05 10:45:30.360 1.500E-01 0.500 F 0.248 -0.390 +06° 26' 55.30" 1.000E-01 0.500 F 0.270 0.404 21.0 V 0.70 -0.10 o 691 1.13 Yes Yes
2016CB32 O C H 2016-03-02.36215 1.000E-05 10:45:30.080 1.500E-01 0.500 F 0.248 -0.413 +06° 26' 56.80" 1.000E-01 0.500 F 0.270 -0.131 21.0 V 0.70 -0.10 o 691 0.87 Yes Yes
2016CQ195 O C 2016-03-02.36631 1.000E-05 10:44:22.990 1.500E-01 0.500 F 0.092 -0.226 -01° 54' 17.40" 1.000E-01 0.500 F 0.141 0.096 20.4 V 0.70 -0.23 o 691 0.49 Yes Yes
2016CQ195 O C 2016-03-02.36880 1.000E-05 10:44:22.650 1.500E-01 0.500 F 0.092 -0.414 -01° 54' 17.50" 1.000E-01 0.500 F 0.141 0.217 20.2 V 0.70 -0.43 o 691 0.94 Yes Yes
2016CQ195 O C 2016-03-02.37129 1.000E-05 10:44:22.320 1.500E-01 0.500 F 0.092 -0.453 -01° 54' 18.20" 1.000E-01 0.500 F 0.141 -0.261 20.4 V 0.70 -0.23 o 691 1.05 Yes Yes
2016CB30 O C 2016-03-02.38888 1.000E-05 09:35:51.180 1.500E-01 0.500 F 0.061 -0.146 +26° 36' 19.90" 1.000E-01 0.500 F 0.267 0.118 20.2 V 0.70 -0.13 o 691 0.38 Yes Yes
2016CB30 O C 2016-03-02.39227 1.000E-05 09:35:51.700 1.500E-01 0.500 F 0.061 0.075 +26° 36' 13.70" 1.000E-01 0.500 F 0.267 -0.161 20.0 V 0.70 -0.33 o 691 0.36 Yes Yes
2016CB30 O C 2016-03-02.39564 1.000E-05 09:35:52.250 1.500E-01 0.500 F 0.061 0.717 +26° 36' 07.40" 1.000E-01 0.500 F 0.267 -0.565 20.5 V 0.70 0.17 o 691 1.85 Yes Yes
2016CJ30 O C 2016-03-02.39867 1.000E-05 10:44:10.510 1.500E-01 0.500 F 0.296 2.098 +06° 48' 55.50" 1.000E-01 0.500 F 0.370 -1.935 18.5 V 0.70 -0.08 o 691 5.64 No Yes
2016CJ30 O C 2016-03-02.40047 1.000E-05 10:44:11.500 1.500E-01 0.500 F 0.296 0.248 +06° 48' 51.10" 1.000E-01 0.500 F 0.370 -0.052 18.8 V 0.70 0.22 o 691 0.51 Yes Yes
2016CJ30 O C 2016-03-02.40227 1.000E-05 10:44:12.610 1.500E-01 0.500 F 0.296 0.179 +06° 48' 44.70" 1.000E-01 0.500 F 0.370 -0.167 18.8 V 0.70 0.22 o 691 0.50 Yes Yes
2016DZ21 O C H 2016-03-02.40529 1.000E-05 11:37:29.130 1.500E-01 0.500 F 0.312 0.059 -01° 08' 20.60" 1.000E-01 0.500 F -0.004 -1.160 o 691 2.37 Yes No
2016DZ21 O C H 2016-03-02.40824 1.000E-05 11:37:28.880 1.500E-01 0.500 F 0.312 0.112 -01° 08' 31.30" 1.000E-01 0.500 F -0.004 -1.658 o 691 3.27 No No
2016DZ21 O C H 2016-03-02.41119 1.000E-05 11:37:28.630 1.500E-01 0.500 F 0.312 0.156 -01° 08' 40.70" 1.000E-01 0.500 F -0.004 -0.858 o 691 1.78 Yes No
2016EK1 O C H 2016-03-02.42743 1.000E-05 11:04:45.410 1.500E-01 0.500 F 0.139 -1.006 +18° 37' 55.40" 1.000E-01 0.500 F 0.284 0.027 o 691 2.13 Yes No
2016EK1 O C H 2016-03-02.42922 1.000E-05 11:04:46.750 1.500E-01 0.500 F 0.139 -1.069 +18° 37' 42.40" 1.000E-01 0.500 F 0.284 -0.506 o 691 2.48 Yes No
2016EK1 O C H 2016-03-02.43101 1.000E-05 11:04:48.240 1.500E-01 0.500 F 0.139 0.910 +18° 37' 29.30" 1.000E-01 0.500 F 0.284 -1.089 o 691 3.01 Yes No
2007GG O C 2016-03-02.45880 1.000E-05 12:26:54.990 1.500E-01 0.500 F 0.094 -0.274 +03° 42' 58.10" 1.000E-01 0.500 F 0.314 -0.197 19.9 V 0.70 -0.09 o 691 0.68 Yes Yes
2007GG O C 2016-03-02.46245 1.000E-05 12:26:54.760 1.500E-01 0.500 F 0.094 0.006 +03° 43' 00.70" 1.000E-01 0.500 F 0.314 0.033 19.8 V 0.70 -0.19 o 691 0.07 Yes Yes
2007GG O C 2016-03-02.46609 1.000E-05 12:26:54.490 1.500E-01 0.500 F 0.094 -0.325 +03° 43' 03.20" 1.000E-01 0.500 F 0.314 0.169 20.0 V 0.70 0.01 o 691 0.74 Yes Yes
2006CW O C H 2016-03-02.47017 1.000E-05 11:42:38.810 1.500E-01 0.500 F 0.101 0.581 +16° 38' 45.30" 1.000E-01 0.500 F 0.275 0.147 20.1 V 0.70 0.18 o 691 1.21 Yes Yes
2006CW O C H 2016-03-02.47310 1.000E-05 11:42:39.440 1.500E-01 0.500 F 0.101 0.489 +16° 38' 50.90" 1.000E-01 0.500 F 0.275 0.752 19.8 V 0.70 -0.12 o 691 1.81 Yes Yes
2005EW169 O C H 2016-03-02.47988 1.000E-05 12:45:01.690 1.500E-01 0.500 F 0.177 -0.847 -07° 47' 58.30" 1.000E-01 0.500 F 0.039 -0.268 20.7 V 0.70 -0.07 o 691 1.78 Yes Yes
2005EW169 O C H 2016-03-02.48301 1.000E-05 12:45:01.470 1.500E-01 0.500 F 0.177 -0.217 -07° 47' 56.90" 1.000E-01 0.500 F 0.039 -0.668 20.6 V 0.70 -0.17 o 691 1.41 Yes Yes
2005EW169 O C H 2016-03-02.48613 1.000E-05 12:45:01.180 1.500E-01 0.500 F 0.177 -0.641 -07° 47' 54.40" 1.000E-01 0.500 F 0.039 0.037 20.5 V 0.70 -0.27 o 691 1.29 Yes Yes
2015XA379 O C H 2016-03-02.50333 1.000E-05 13:40:25.770 1.500E-01 0.500 F 0.195 0.125 -01° 45' 31.10" 1.000E-01 0.500 F 0.052 0.074 19.9 V 0.70 -0.46 o 691 0.29 Yes Yes
2015XA379 O C H 2016-03-02.50604 1.000E-05 13:40:26.060 1.500E-01 0.500 F 0.195 0.277 -01° 45' 30.80" 1.000E-01 0.500 F 0.052 -0.188 19.6 V 0.70 -0.76 o 691 0.67 Yes Yes
2016BC14 O C 2016-03-02.51257 1.000E-05 15:42:25.800 1.500E-01 0.500 F 0.321 -0.293 +08° 09' 07.70" 1.000E-01 0.500 F 0.266 -0.243 18.0 V 0.70 -0.37 o 691 0.76 Yes Yes
2016BC14 O C 2016-03-02.51505 1.000E-05 15:42:25.940 1.500E-01 0.500 F 0.321 -0.215 +08° 09' 03.40" 1.000E-01 0.500 F 0.266 0.008 18.0 V 0.70 -0.37 o 691 0.43 Yes Yes
2016BC14 O C 2016-03-02.51754 1.000E-05 15:42:26.080 1.500E-01 0.500 F 0.321 -0.146 +08° 08' 58.70" 1.000E-01 0.500 F 0.266 -0.120 18.0 V 0.70 -0.37 o 691 0.38 Yes Yes
2015XC1 O C 2016-03-03.13232 1.000E-05 03:59:57.560 1.500E-01 0.500 F -0.113 -0.459 +06° 24' 27.30" 1.000E-01 0.500 F 0.207 -0.121 o 691 0.95 Yes No
2007BG O C H 2016-03-03.13232 1.000E-05 03:57:48.370 1.500E-01 0.500 F -0.111 0.181 +06° 14' 49.70" 1.000E-01 0.500 F 0.196 0.035 o 691 0.37 Yes No

[1-200] [201-400] [401-600] [601-800] [801-1000] [1001-1200] [1201-1400] [1401-1600] [1601-1800] [1801-2000] [2001-2200] [2201-2400] [2401-2600] [2601-2800] [2801-3000] [3001-3200] [3201-3400] [3401-3600] [3601-3800] [3801-4000] [4001-4200] [4201-4400] [4401-4600] [4601-4800] [4801-5000] [5001-5200] [5201-5400] [5401-5600] [5601-5800] [5801-6000] [6001-6200] [6201-6400] [6401-6600] [6601-6800] [6801-7000] [7001-7200] [7201-7400] [7401-7600] [7601-7800] [7801-8000] [8001-8200] [8201-8400] [8401-8600] [8601-8800] [8801-9000] [9001-9200] [9201-9400] [9401-9600] [9601-9800] [9801-10000] [10001-10200] [10201-10400] [10401-10600] [10601-10800] [10801-11000] [11001-11200] [11201-11400] [11401-11600] [11601-11800] [11801-12000] [12001-12200] [12201-12400] [12401-12600] [12601-12800] [12801-13000] [13001-13200] [13201-13400] [13401-13600] [13601-13800] [13801-14000] [14001-14200] [14201-14400] [14401-14600] [14601-14800] [14801-15000] [15001-15200] [15201-15400] [15401-15600] [15601-15800] [15801-16000] [16001-16200] [16201-16400] [16401-16600] [16601-16800] [16801-17000] [17001-17200] [17201-17400] [17401-17600] [17601-17800] [17801-18000] [18001-18200] [18201-18400] [18401-18600] [18601-18800] [18801-19000] [19001-19200] [19201-19400] [19401-19600] [19601-19800] [19801-20000] [20001-20200] [20201-20400] [20401-20600] [20601-20800] [20801-21000] [21001-21200] [21201-21400] [21401-21600] [21601-21800] [21801-22000] [22001-22200] [22201-22400] [22401-22600] [22601-22800] [22801-23000] [23001-23200] [23201-23400] [23401-23600] [23601-23800] [23801-24000] [24001-24200] [24201-24400] [24401-24600] [24601-24800] [24801-25000] [25001-25200] [25201-25400] [25401-25600] [25601-25800] [25801-26000] [26001-26200] [26201-26400] [26401-26600] [26601-26800] [26801-27000] [27001-27200] [27201-27400] [27401-27600] [27601-27800] [27801-28000] [28001-28200] [28201-28400] [28401-28600] [28601-28800] [28801-29000] [29001-29200] [29201-29400] [29401-29600] [29601-29800] [29801-30000] [30001-30200] [30201-30400] [30401-30600] [30601-30800] [30801-31000] [31001-31200] [31201-31400] [31401-31600] [31601-31800] [31801-32000] [32001-32200] [32201-32400] [32401-32600] [32601-32800] [32801-33000] [33001-33200] [33201-33400] [33401-33600] [33601-33800] [33801-34000] [34001-34200] [34201-34400] [34401-34600] [34601-34800] [34801-35000] [35001-35200] [35201-35400] [35401-35600] [35601-35800] [35801-36000] [36001-36200] [36201-36400] [36401-36600] [36601-36800] [36801-37000] [37001-37200] [37201-37400] [37401-37600] [37601-37800] [37801-38000] [38001-38200] [38201-38400] [38401-38600] [38601-38800] [38801-39000] [39001-39200] [39201-39400] [39401-39600] [39601-39800] [39801-40000] [40001-40200] [40201-40400] [40401-40600] [40601-40800] [40801-41000] [41001-41200] [41201-41400] [41401-41600] [41601-41800] [41801-42000] [42001-42200] [42201-42400] [42401-42600] [42601-42800] [42801-43000] [43001-43200] [43201-43400] [43401-43600] [43601-43800] [43801-44000] [44001-44200] [44201-44400] [44401-44600] [44601-44800] [44801-45000] [45001-45200] [45201-45400] [45401-45600] [45601-45800] [45801-46000] [46001-46200] [46201-46400] [46401-46600] [46601-46800] [46801-47000] [47001-47200] [47201-47400] [47401-47600] [47601-47800] [47801-48000] [48001-48200] [48201-48400] [48401-48600] [48601-48800] [48801-49000] [49001-49200] [49201-49400] [49401-49600] [49601-49800] [49801-50000] [50001-50200] [50201-50388]